Rock Grove, Illinois
Current Conditions -  °F | °C
As of 6:55 AM on Monday 20 Oct 2014 (Local Time) from KFEP Reporting Station
Clear Clear  
Wind Chill: 41°   Ceiling: Unl
Heat Index: 45°   Visibility: 10mi
Dew Point: 42°   Wind: 7mph
Humidity: 90%   Direction: 270°W
Pressure: 29.85"   Gusts: NA
Location:  42.4147°N, 89.4715°W
Report Text: KFEP 201155Z AUTO 27006KT 10SM CLR 07/06 A2985 RMK AO2 T00700055 10094 20066
Loading
Personal Weather Stations






























Interactive Weather Map New forecast layout! Learn more

10-Day Weather Forecast

Advertisements
Track Severe Weather on mobile